sensor_id;sensor_type;location;lat;lon;timestamp;temperature;humidity
2839;DHT22;1427;48.510;9.060;2023-09-08T00:00:04;17.70;99.90
2839;DHT22;1427;48.510;9.060;2023-09-08T00:02:33;17.70;99.90
2839;DHT22;1427;48.510;9.060;2023-09-08T00:05:01;17.70;99.90
2839;DHT22;1427;48.510;9.060;2023-09-08T00:07:29;17.80;99.90
2839;DHT22;1427;48.510;9.060;2023-09-08T00:09:59;17.70;99.90
2839;DHT22;1427;48.510;9.060;2023-09-08T00:12:28;17.80;99.90
2839;DHT22;1427;48.510;9.060;2023-09-08T00:14:56;17.60;99.90
2839;DHT22;1427;48.510;9.060;2023-09-08T00:17:24;17.70;99.90
2839;DHT22;1427;48.510;9.060;2023-09-08T00:19:53;17.40;99.90
2839;DHT22;1427;48.510;9.060;2023-09-08T00:22:21;17.40;99.90
2839;DHT22;1427;48.510;9.060;2023-09-08T00:24:49;17.30;99.90
2839;DHT22;1427;48.510;9.060;2023-09-08T00:27:19;17.30;99.90
2839;DHT22;1427;48.510;9.060;2023-09-08T00:29:48;17.30;99.90
2839;DHT22;1427;48.510;9.060;2023-09-08T00:32:16;17.20;99.90
2839;DHT22;1427;48.510;9.060;2023-09-08T00:34:44;17.10;99.90
2839;DHT22;1427;48.510;9.060;2023-09-08T00:37:13;17.10;99.90
2839;DHT22;1427;48.510;9.060;2023-09-08T00:39:41;17.10;99.90
2839;DHT22;1427;48.510;9.060;2023-09-08T00:42:10;17.00;99.90
2839;DHT22;1427;48.510;9.060;2023-09-08T00:44:39;17.00;99.90
2839;DHT22;1427;48.510;9.060;2023-09-08T00:47:08;17.00;99.90
2839;DHT22;1427;48.510;9.060;2023-09-08T00:49:36;17.00;99.90
2839;DHT22;1427;48.510;9.060;2023-09-08T00:52:05;17.00;99.90
2839;DHT22;1427;48.510;9.060;2023-09-08T00:54:34;17.00;99.90
2839;DHT22;1427;48.510;9.060;2023-09-08T00:57:03;17.00;99.90
2839;DHT22;1427;48.510;9.060;2023-09-08T00:59:32;17.00;99.90
2839;DHT22;1427;48.510;9.060;2023-09-08T01:02:03;17.00;99.90
2839;DHT22;1427;48.510;9.060;2023-09-08T01:04:31;16.90;99.90
2839;DHT22;1427;48.510;9.060;2023-09-08T01:07:01;16.90;99.90
2839;DHT22;1427;48.510;9.060;2023-09-08T01:09:30;16.90;99.90
2839;DHT22;1427;48.510;9.060;2023-09-08T01:11:58;16.80;99.90
2839;DHT22;1427;48.510;9.060;2023-09-08T01:14:29;16.70;99.90
2839;DHT22;1427;48.510;9.060;2023-09-08T01:16:57;16.60;99.90
2839;DHT22;1427;48.510;9.060;2023-09-08T01:19:28;16.70;99.90
2839;DHT22;1427;48.510;9.060;2023-09-08T01:22:11;16.70;99.90
2839;DHT22;1427;48.510;9.060;2023-09-08T01:27:50;16.90;99.90
2839;DHT22;1427;48.510;9.060;2023-09-08T01:30:19;16.80;99.90
2839;DHT22;1427;48.510;9.060;2023-09-08T01:32:49;16.80;99.90
2839;DHT22;1427;48.510;9.060;2023-09-08T01:35:18;16.80;99.90
2839;DHT22;1427;48.510;9.060;2023-09-08T01:37:48;16.70;99.90
2839;DHT22;1427;48.510;9.060;2023-09-08T01:40:17;16.70;99.90
2839;DHT22;1427;48.510;9.060;2023-09-08T01:42:47;16.60;99.90
2839;DHT22;1427;48.510;9.060;2023-09-08T01:45:16;16.60;99.90
2839;DHT22;1427;48.510;9.060;2023-09-08T01:47:44;16.70;99.90
2839;DHT22;1427;48.510;9.060;2023-09-08T01:50:12;16.70;99.90
2839;DHT22;1427;48.510;9.060;2023-09-08T01:52:42;16.60;99.90
2839;DHT22;1427;48.510;9.060;2023-09-08T01:55:10;16.60;99.90
2839;DHT22;1427;48.510;9.060;2023-09-08T01:57:40;16.50;99.90
2839;DHT22;1427;48.510;9.060;2023-09-08T02:00:10;16.50;99.90
2839;DHT22;1427;48.510;9.060;2023-09-08T02:02:38;16.50;99.90
2839;DHT22;1427;48.510;9.060;2023-09-08T02:05:07;16.30;99.90
2839;DHT22;1427;48.510;9.060;2023-09-08T02:07:36;16.30;99.90
2839;DHT22;1427;48.510;9.060;2023-09-08T02:10:05;16.20;99.90
2839;DHT22;1427;48.510;9.060;2023-09-08T02:12:34;16.10;99.90
2839;DHT22;1427;48.510;9.060;2023-09-08T02:15:04;16.20;99.90
2839;DHT22;1427;48.510;9.060;2023-09-08T02:17:33;16.20;99.90
2839;DHT22;1427;48.510;9.060;2023-09-08T02:20:01;16.20;99.90
2839;DHT22;1427;48.510;9.060;2023-09-08T02:22:30;16.10;99.90
2839;DHT22;1427;48.510;9.060;2023-09-08T02:24:59;16.10;99.90
2839;DHT22;1427;48.510;9.060;2023-09-08T02:27:27;16.20;99.90
2839;DHT22;1427;48.510;9.060;2023-09-08T02:29:55;16.20;99.90
2839;DHT22;1427;48.510;9.060;2023-09-08T02:32:25;16.10;99.90
2839;DHT22;1427;48.510;9.060;2023-09-08T02:34:54;16.20;99.90
2839;DHT22;1427;48.510;9.060;2023-09-08T02:37:22;16.10;99.90
2839;DHT22;1427;48.510;9.060;2023-09-08T02:39:51;16.10;99.90
2839;DHT22;1427;48.510;9.060;2023-09-08T02:42:20;16.10;99.90
2839;DHT22;1427;48.510;9.060;2023-09-08T02:44:48;16.00;99.90
2839;DHT22;1427;48.510;9.060;2023-09-08T02:47:17;16.00;99.90
2839;DHT22;1427;48.510;9.060;2023-09-08T02:49:47;16.00;99.90
2839;DHT22;1427;48.510;9.060;2023-09-08T02:52:16;16.00;99.90
2839;DHT22;1427;48.510;9.060;2023-09-08T02:54:48;16.00;99.90
2839;DHT22;1427;48.510;9.060;2023-09-08T02:57:16;16.00;99.90
2839;DHT22;1427;48.510;9.060;2023-09-08T02:59:49;15.90;99.90
2839;DHT22;1427;48.510;9.060;2023-09-08T03:02:17;15.80;99.90
2839;DHT22;1427;48.510;9.060;2023-09-08T03:04:48;15.80;99.90
2839;DHT22;1427;48.510;9.060;2023-09-08T03:07:16;15.70;99.90
2839;DHT22;1427;48.510;9.060;2023-09-08T03:09:44;15.60;99.90
2839;DHT22;1427;48.510;9.060;2023-09-08T03:12:12;15.60;99.90
2839;DHT22;1427;48.510;9.060;2023-09-08T03:14:41;15.60;99.90
2839;DHT22;1427;48.510;9.060;2023-09-08T03:17:09;15.80;99.90
2839;DHT22;1427;48.510;9.060;2023-09-08T03:19:38;15.60;99.90
2839;DHT22;1427;48.510;9.060;2023-09-08T03:22:07;15.60;99.90
2839;DHT22;1427;48.510;9.060;2023-09-08T03:24:36;15.50;99.90
2839;DHT22;1427;48.510;9.060;2023-09-08T03:27:04;15.40;99.90
2839;DHT22;1427;48.510;9.060;2023-09-08T03:29:33;15.30;99.90
2839;DHT22;1427;48.510;9.060;2023-09-08T03:32:01;15.30;99.90
2839;DHT22;1427;48.510;9.060;2023-09-08T03:34:30;15.30;99.90
2839;DHT22;1427;48.510;9.060;2023-09-08T03:36:59;15.30;99.90
2839;DHT22;1427;48.510;9.060;2023-09-08T03:39:28;15.30;99.90
2839;DHT22;1427;48.510;9.060;2023-09-08T03:41:57;15.30;99.90
2839;DHT22;1427;48.510;9.060;2023-09-08T03:44:25;15.40;99.90
2839;DHT22;1427;48.510;9.060;2023-09-08T03:46:53;15.40;99.90
2839;DHT22;1427;48.510;9.060;2023-09-08T03:49:22;15.50;99.90
2839;DHT22;1427;48.510;9.060;2023-09-08T03:51:50;15.50;99.90
2839;DHT22;1427;48.510;9.060;2023-09-08T03:54:19;15.40;99.90
2839;DHT22;1427;48.510;9.060;2023-09-08T03:56:48;15.50;99.90
2839;DHT22;1427;48.510;9.060;2023-09-08T03:59:17;15.40;99.90
2839;DHT22;1427;48.510;9.060;2023-09-08T04:01:46;15.50;99.90
2839;DHT22;1427;48.510;9.060;2023-09-08T04:04:14;15.40;99.90
2839;DHT22;1427;48.510;9.060;2023-09-08T04:06:43;15.40;99.90
2839;DHT22;1427;48.510;9.060;2023-09-08T04:09:11;15.30;99.90
2839;DHT22;1427;48.510;9.060;2023-09-08T04:11:40;15.40;99.90
2839;DHT22;1427;48.510;9.060;2023-09-08T04:14:10;15.30;99.90
2839;DHT22;1427;48.510;9.060;2023-09-08T04:16:38;15.30;99.90
2839;DHT22;1427;48.510;9.060;2023-09-08T04:19:06;15.30;99.90
2839;DHT22;1427;48.510;9.060;2023-09-08T04:21:35;15.30;99.90
2839;DHT22;1427;48.510;9.060;2023-09-08T04:24:05;15.30;99.90
2839;DHT22;1427;48.510;9.060;2023-09-08T04:26:34;15.30;99.90
2839;DHT22;1427;48.510;9.060;2023-09-08T04:29:02;15.20;99.90
2839;DHT22;1427;48.510;9.060;2023-09-08T04:31:32;15.20;99.90
2839;DHT22;1427;48.510;9.060;2023-09-08T04:34:00;15.20;99.90
2839;DHT22;1427;48.510;9.060;2023-09-08T04:36:29;15.20;99.90
2839;DHT22;1427;48.510;9.060;2023-09-08T04:38:57;15.10;99.90
2839;DHT22;1427;48.510;9.060;2023-09-08T04:41:25;15.10;99.90
2839;DHT22;1427;48.510;9.060;2023-09-08T04:43:54;15.10;99.90
2839;DHT22;1427;48.510;9.060;2023-09-08T04:46:22;15.10;99.90
2839;DHT22;1427;48.510;9.060;2023-09-08T04:48:52;15.00;99.90
2839;DHT22;1427;48.510;9.060;2023-09-08T04:51:20;15.00;99.90
2839;DHT22;1427;48.510;9.060;2023-09-08T04:53:49;15.00;99.90
2839;DHT22;1427;48.510;9.060;2023-09-08T04:56:17;15.00;99.90
2839;DHT22;1427;48.510;9.060;2023-09-08T04:58:46;15.00;99.90
2839;DHT22;1427;48.510;9.060;2023-09-08T05:01:14;15.00;99.90
2839;DHT22;1427;48.510;9.060;2023-09-08T05:03:42;15.10;99.90
2839;DHT22;1427;48.510;9.060;2023-09-08T05:06:12;15.10;99.90
2839;DHT22;1427;48.510;9.060;2023-09-08T05:08:41;15.10;99.90
2839;DHT22;1427;48.510;9.060;2023-09-08T05:11:11;15.10;99.90
2839;DHT22;1427;48.510;9.060;2023-09-08T05:13:39;15.10;99.90
2839;DHT22;1427;48.510;9.060;2023-09-08T05:16:07;15.10;99.90
2839;DHT22;1427;48.510;9.060;2023-09-08T05:18:39;15.10;99.90
2839;DHT22;1427;48.510;9.060;2023-09-08T05:21:08;15.10;99.90
2839;DHT22;1427;48.510;9.060;2023-09-08T05:23:37;15.10;99.90
2839;DHT22;1427;48.510;9.060;2023-09-08T05:26:05;15.10;99.90
2839;DHT22;1427;48.510;9.060;2023-09-08T05:28:33;15.20;99.90
2839;DHT22;1427;48.510;9.060;2023-09-08T05:31:05;15.40;99.90
2839;DHT22;1427;48.510;9.060;2023-09-08T05:33:33;15.50;99.90
2839;DHT22;1427;48.510;9.060;2023-09-08T05:36:02;15.40;99.90
2839;DHT22;1427;48.510;9.060;2023-09-08T05:38:30;15.50;99.90
2839;DHT22;1427;48.510;9.060;2023-09-08T05:41:00;15.70;99.90
2839;DHT22;1427;48.510;9.060;2023-09-08T05:43:29;15.70;99.90
2839;DHT22;1427;48.510;9.060;2023-09-08T05:45:58;15.90;99.90
2839;DHT22;1427;48.510;9.060;2023-09-08T05:48:26;16.00;99.90
2839;DHT22;1427;48.510;9.060;2023-09-08T05:50:54;16.00;99.90
2839;DHT22;1427;48.510;9.060;2023-09-08T05:53:23;16.00;99.90
2839;DHT22;1427;48.510;9.060;2023-09-08T05:55:51;16.10;99.90
2839;DHT22;1427;48.510;9.060;2023-09-08T05:58:21;16.10;99.90
2839;DHT22;1427;48.510;9.060;2023-09-08T06:00:51;16.40;99.90
2839;DHT22;1427;48.510;9.060;2023-09-08T06:03:19;16.50;99.90
2839;DHT22;1427;48.510;9.060;2023-09-08T06:05:47;16.80;99.90
2839;DHT22;1427;48.510;9.060;2023-09-08T06:08:15;17.20;99.90
2839;DHT22;1427;48.510;9.060;2023-09-08T06:10:43;17.50;99.90
2839;DHT22;1427;48.510;9.060;2023-09-08T06:13:11;17.90;99.90
2839;DHT22;1427;48.510;9.060;2023-09-08T06:15:41;18.30;99.90
2839;DHT22;1427;48.510;9.060;2023-09-08T06:18:09;18.60;99.90
2839;DHT22;1427;48.510;9.060;2023-09-08T06:20:43;18.70;99.90
2839;DHT22;1427;48.510;9.060;2023-09-08T06:23:11;18.60;99.90
2839;DHT22;1427;48.510;9.060;2023-09-08T06:25:39;18.70;99.90
2839;DHT22;1427;48.510;9.060;2023-09-08T06:28:07;19.00;99.90
2839;DHT22;1427;48.510;9.060;2023-09-08T06:30:35;19.20;99.90
2839;DHT22;1427;48.510;9.060;2023-09-08T06:33:05;19.40;99.90
2839;DHT22;1427;48.510;9.060;2023-09-08T06:35:33;19.60;99.90
2839;DHT22;1427;48.510;9.060;2023-09-08T06:38:01;19.90;99.90
2839;DHT22;1427;48.510;9.060;2023-09-08T06:40:29;20.10;99.90
2839;DHT22;1427;48.510;9.060;2023-09-08T06:42:58;20.20;99.90
2839;DHT22;1427;48.510;9.060;2023-09-08T06:45:29;20.40;99.90
2839;DHT22;1427;48.510;9.060;2023-09-08T06:47:58;20.40;99.90
2839;DHT22;1427;48.510;9.060;2023-09-08T06:50:28;20.30;99.90
2839;DHT22;1427;48.510;9.060;2023-09-08T06:52:57;19.90;99.90
2839;DHT22;1427;48.510;9.060;2023-09-08T06:55:26;19.70;99.90
2839;DHT22;1427;48.510;9.060;2023-09-08T06:57:54;20.00;99.90
2839;DHT22;1427;48.510;9.060;2023-09-08T07:00:22;19.90;99.90
2839;DHT22;1427;48.510;9.060;2023-09-08T07:02:50;20.30;99.90
2839;DHT22;1427;48.510;9.060;2023-09-08T07:05:19;20.60;99.90
2839;DHT22;1427;48.510;9.060;2023-09-08T07:07:48;20.80;99.90
2839;DHT22;1427;48.510;9.060;2023-09-08T07:10:17;20.90;99.90
2839;DHT22;1427;48.510;9.060;2023-09-08T07:13:00;21.20;99.90
2839;DHT22;1427;48.510;9.060;2023-09-08T07:15:29;21.40;99.90
2839;DHT22;1427;48.510;9.060;2023-09-08T07:17:57;21.70;99.90
2839;DHT22;1427;48.510;9.060;2023-09-08T07:20:25;21.50;99.90
2839;DHT22;1427;48.510;9.060;2023-09-08T07:22:53;21.50;99.90
2839;DHT22;1427;48.510;9.060;2023-09-08T07:25:22;21.70;99.90
2839;DHT22;1427;48.510;9.060;2023-09-08T07:27:50;21.90;99.90
2839;DHT22;1427;48.510;9.060;2023-09-08T07:30:21;21.70;99.90
2839;DHT22;1427;48.510;9.060;2023-09-08T07:32:49;22.00;99.90
2839;DHT22;1427;48.510;9.060;2023-09-08T07:35:18;22.20;99.90
2839;DHT22;1427;48.510;9.060;2023-09-08T07:37:47;22.50;99.90
2839;DHT22;1427;48.510;9.060;2023-09-08T07:40:15;22.70;99.90
2839;DHT22;1427;48.510;9.060;2023-09-08T07:42:43;22.60;99.90
2839;DHT22;1427;48.510;9.060;2023-09-08T07:45:11;22.60;99.90
2839;DHT22;1427;48.510;9.060;2023-09-08T07:47:40;22.90;99.90
2839;DHT22;1427;48.510;9.060;2023-09-08T07:50:19;22.80;99.90
2839;DHT22;1427;48.510;9.060;2023-09-08T07:52:48;22.60;99.90
2839;DHT22;1427;48.510;9.060;2023-09-08T07:55:16;22.50;99.90
2839;DHT22;1427;48.510;9.060;2023-09-08T07:57:46;22.80;99.90
2839;DHT22;1427;48.510;9.060;2023-09-08T08:00:15;23.00;99.90
2839;DHT22;1427;48.510;9.060;2023-09-08T08:02:48;23.00;99.90
2839;DHT22;1427;48.510;9.060;2023-09-08T08:05:17;23.40;99.90
2839;DHT22;1427;48.510;9.060;2023-09-08T08:07:45;23.50;99.90
2839;DHT22;1427;48.510;9.060;2023-09-08T08:10:13;23.40;99.90
2839;DHT22;1427;48.510;9.060;2023-09-08T08:12:42;23.60;99.90
2839;DHT22;1427;48.510;9.060;2023-09-08T08:15:11;23.80;99.90
2839;DHT22;1427;48.510;9.060;2023-09-08T08:17:40;24.10;99.90
2839;DHT22;1427;48.510;9.060;2023-09-08T08:20:10;24.20;99.90
2839;DHT22;1427;48.510;9.060;2023-09-08T08:22:45;24.10;99.90
2839;DHT22;1427;48.510;9.060;2023-09-08T08:25:14;24.30;99.90
2839;DHT22;1427;48.510;9.060;2023-09-08T08:27:42;24.60;99.90
2839;DHT22;1427;48.510;9.060;2023-09-08T08:30:12;25.10;99.90
2839;DHT22;1427;48.510;9.060;2023-09-08T08:32:40;25.30;99.90
2839;DHT22;1427;48.510;9.060;2023-09-08T08:35:09;25.40;99.90
2839;DHT22;1427;48.510;9.060;2023-09-08T08:37:40;25.10;99.90
2839;DHT22;1427;48.510;9.060;2023-09-08T08:40:09;25.40;99.90
2839;DHT22;1427;48.510;9.060;2023-09-08T08:42:40;25.70;99.90
2839;DHT22;1427;48.510;9.060;2023-09-08T08:45:09;26.10;99.90
2839;DHT22;1427;48.510;9.060;2023-09-08T08:47:37;25.90;99.90
2839;DHT22;1427;48.510;9.060;2023-09-08T08:50:09;25.90;99.90
2839;DHT22;1427;48.510;9.060;2023-09-08T08:52:39;26.40;99.90
2839;DHT22;1427;48.510;9.060;2023-09-08T08:55:07;26.60;99.90
2839;DHT22;1427;48.510;9.060;2023-09-08T08:57:37;27.00;99.90
2839;DHT22;1427;48.510;9.060;2023-09-08T09:00:08;27.30;99.90
2839;DHT22;1427;48.510;9.060;2023-09-08T09:02:39;26.90;99.90
2839;DHT22;1427;48.510;9.060;2023-09-08T09:05:15;26.90;99.90
2839;DHT22;1427;48.510;9.060;2023-09-08T09:07:44;26.50;99.90
2839;DHT22;1427;48.510;9.060;2023-09-08T09:10:13;26.10;99.90
2839;DHT22;1427;48.510;9.060;2023-09-08T09:12:41;26.00;99.90
2839;DHT22;1427;48.510;9.060;2023-09-08T09:15:10;26.20;99.90
2839;DHT22;1427;48.510;9.060;2023-09-08T09:17:40;26.50;99.90
2839;DHT22;1427;48.510;9.060;2023-09-08T09:20:14;26.70;99.90
2839;DHT22;1427;48.510;9.060;2023-09-08T09:22:45;26.60;99.90
2839;DHT22;1427;48.510;9.060;2023-09-08T09:25:24;26.70;99.90
2839;DHT22;1427;48.510;9.060;2023-09-08T09:27:53;26.90;99.90
2839;DHT22;1427;48.510;9.060;2023-09-08T09:30:23;27.40;99.90
2839;DHT22;1427;48.510;9.060;2023-09-08T09:32:59;27.70;99.90
2839;DHT22;1427;48.510;9.060;2023-09-08T09:35:43;28.00;99.90
2839;DHT22;1427;48.510;9.060;2023-09-08T09:38:13;28.10;99.80
2839;DHT22;1427;48.510;9.060;2023-09-08T09:40:41;28.00;99.90
2839;DHT22;1427;48.510;9.060;2023-09-08T09:43:10;28.20;99.90
2839;DHT22;1427;48.510;9.060;2023-09-08T09:45:40;28.50;99.90
2839;DHT22;1427;48.510;9.060;2023-09-08T09:48:10;28.60;99.90
2839;DHT22;1427;48.510;9.060;2023-09-08T09:50:40;28.80;99.90
2839;DHT22;1427;48.510;9.060;2023-09-08T09:53:11;29.20;99.90
2839;DHT22;1427;48.510;9.060;2023-09-08T09:55:40;29.40;99.90
2839;DHT22;1427;48.510;9.060;2023-09-08T09:58:10;29.40;99.70
2839;DHT22;1427;48.510;9.060;2023-09-08T10:00:39;29.60;99.30
2839;DHT22;1427;48.510;9.060;2023-09-08T10:03:08;29.70;99.90
2839;DHT22;1427;48.510;9.060;2023-09-08T10:05:38;30.00;99.90
2839;DHT22;1427;48.510;9.060;2023-09-08T10:08:06;30.20;98.80
2839;DHT22;1427;48.510;9.060;2023-09-08T10:10:36;30.40;98.60
2839;DHT22;1427;48.510;9.060;2023-09-08T10:13:06;29.50;99.40
2839;DHT22;1427;48.510;9.060;2023-09-08T10:15:34;29.70;99.90
2839;DHT22;1427;48.510;9.060;2023-09-08T10:18:05;29.80;99.80
2839;DHT22;1427;48.510;9.060;2023-09-08T10:20:34;29.60;99.50
2839;DHT22;1427;48.510;9.060;2023-09-08T10:23:07;29.50;99.70
2839;DHT22;1427;48.510;9.060;2023-09-08T10:25:43;29.90;99.90
2839;DHT22;1427;48.510;9.060;2023-09-08T10:28:12;30.20;99.90
2839;DHT22;1427;48.510;9.060;2023-09-08T10:30:41;30.60;99.90
2839;DHT22;1427;48.510;9.060;2023-09-08T10:33:10;30.90;99.30
2839;DHT22;1427;48.510;9.060;2023-09-08T10:35:40;30.40;98.80
2839;DHT22;1427;48.510;9.060;2023-09-08T10:38:27;30.10;98.90
2839;DHT22;1427;48.510;9.060;2023-09-08T10:41:27;30.10;99.50
2839;DHT22;1427;48.510;9.060;2023-09-08T10:44:02;29.80;98.70
2839;DHT22;1427;48.510;9.060;2023-09-08T10:46:32;29.40;99.70
2839;DHT22;1427;48.510;9.060;2023-09-08T10:49:03;29.50;99.30
2839;DHT22;1427;48.510;9.060;2023-09-08T10:51:31;29.70;99.50
2839;DHT22;1427;48.510;9.060;2023-09-08T10:53:59;29.90;99.40
2839;DHT22;1427;48.510;9.060;2023-09-08T10:56:46;30.10;99.40
2839;DHT22;1427;48.510;9.060;2023-09-08T10:59:16;30.40;99.70
2839;DHT22;1427;48.510;9.060;2023-09-08T11:01:44;30.90;99.80
2839;DHT22;1427;48.510;9.060;2023-09-08T11:04:15;30.70;97.80
2839;DHT22;1427;48.510;9.060;2023-09-08T11:06:46;30.70;99.30
2839;DHT22;1427;48.510;9.060;2023-09-08T11:09:14;30.80;97.10
2839;DHT22;1427;48.510;9.060;2023-09-08T11:11:45;30.40;97.40
2839;DHT22;1427;48.510;9.060;2023-09-08T11:14:13;30.00;98.00
2839;DHT22;1427;48.510;9.060;2023-09-08T11:16:43;30.10;98.60
2839;DHT22;1427;48.510;9.060;2023-09-08T11:19:11;30.30;98.20
2839;DHT22;1427;48.510;9.060;2023-09-08T11:21:39;30.20;98.50
2839;DHT22;1427;48.510;9.060;2023-09-08T11:24:08;30.60;98.80
2839;DHT22;1427;48.510;9.060;2023-09-08T11:26:37;30.80;98.40
2839;DHT22;1427;48.510;9.060;2023-09-08T11:29:06;30.80;97.20
2839;DHT22;1427;48.510;9.060;2023-09-08T11:31:35;30.80;97.90
2839;DHT22;1427;48.510;9.060;2023-09-08T11:34:04;31.20;98.40
2839;DHT22;1427;48.510;9.060;2023-09-08T11:36:34;31.40;98.40
2839;DHT22;1427;48.510;9.060;2023-09-08T11:39:04;31.70;98.50
2839;DHT22;1427;48.510;9.060;2023-09-08T11:41:34;31.90;96.60
2839;DHT22;1427;48.510;9.060;2023-09-08T11:44:02;31.70;96.50
2839;DHT22;1427;48.510;9.060;2023-09-08T11:46:32;31.90;98.40
2839;DHT22;1427;48.510;9.060;2023-09-08T11:49:00;32.20;97.90
2839;DHT22;1427;48.510;9.060;2023-09-08T11:51:28;32.50;97.00
2839;DHT22;1427;48.510;9.060;2023-09-08T11:53:57;32.60;95.20
2839;DHT22;1427;48.510;9.060;2023-09-08T11:56:25;32.70;96.90
2839;DHT22;1427;48.510;9.060;2023-09-08T11:58:54;32.90;96.90
2839;DHT22;1427;48.510;9.060;2023-09-08T12:01:23;33.00;95.50
2839;DHT22;1427;48.510;9.060;2023-09-08T12:03:52;32.90;93.60
2839;DHT22;1427;48.510;9.060;2023-09-08T12:06:24;32.60;94.70
2839;DHT22;1427;48.510;9.060;2023-09-08T12:08:52;32.40;94.40
2839;DHT22;1427;48.510;9.060;2023-09-08T12:11:20;31.80;95.30
2839;DHT22;1427;48.510;9.060;2023-09-08T12:13:49;31.60;95.10
2839;DHT22;1427;48.510;9.060;2023-09-08T12:16:20;31.40;95.30
2839;DHT22;1427;48.510;9.060;2023-09-08T12:18:49;31.20;96.10
2839;DHT22;1427;48.510;9.060;2023-09-08T12:21:19;31.60;96.70
2839;DHT22;1427;48.510;9.060;2023-09-08T12:23:47;31.90;96.60
2839;DHT22;1427;48.510;9.060;2023-09-08T12:26:16;32.20;95.90
2839;DHT22;1427;48.510;9.060;2023-09-08T12:28:45;32.60;95.40
2839;DHT22;1427;48.510;9.060;2023-09-08T12:31:13;32.70;94.10
2839;DHT22;1427;48.510;9.060;2023-09-08T12:33:42;32.80;95.30
2839;DHT22;1427;48.510;9.060;2023-09-08T12:36:12;32.80;95.00
2839;DHT22;1427;48.510;9.060;2023-09-08T12:38:41;33.00;95.30
2839;DHT22;1427;48.510;9.060;2023-09-08T12:41:09;33.20;95.40
2839;DHT22;1427;48.510;9.060;2023-09-08T12:43:37;33.30;95.40
2839;DHT22;1427;48.510;9.060;2023-09-08T12:46:05;33.40;94.20
2839;DHT22;1427;48.510;9.060;2023-09-08T12:48:34;33.40;94.70
2839;DHT22;1427;48.510;9.060;2023-09-08T12:51:02;33.50;95.10
2839;DHT22;1427;48.510;9.060;2023-09-08T12:53:33;33.50;94.70
2839;DHT22;1427;48.510;9.060;2023-09-08T12:56:04;33.60;94.20
2839;DHT22;1427;48.510;9.060;2023-09-08T12:58:32;33.50;93.70
2839;DHT22;1427;48.510;9.060;2023-09-08T13:01:01;33.50;94.20
2839;DHT22;1427;48.510;9.060;2023-09-08T13:03:32;33.40;93.50
2839;DHT22;1427;48.510;9.060;2023-09-08T13:06:00;33.40;94.50
2839;DHT22;1427;48.510;9.060;2023-09-08T13:08:28;33.40;94.30
2839;DHT22;1427;48.510;9.060;2023-09-08T13:10:56;33.40;94.00
2839;DHT22;1427;48.510;9.060;2023-09-08T13:13:26;33.40;94.10
2839;DHT22;1427;48.510;9.060;2023-09-08T13:15:56;33.40;93.20
2839;DHT22;1427;48.510;9.060;2023-09-08T13:18:24;32.90;93.30
2839;DHT22;1427;48.510;9.060;2023-09-08T13:20:53;32.60;93.80
2839;DHT22;1427;48.510;9.060;2023-09-08T13:23:21;32.40;94.10
2839;DHT22;1427;48.510;9.060;2023-09-08T13:25:49;32.30;93.80
2839;DHT22;1427;48.510;9.060;2023-09-08T13:28:17;32.30;93.60
2839;DHT22;1427;48.510;9.060;2023-09-08T13:30:46;32.10;93.70
2839;DHT22;1427;48.510;9.060;2023-09-08T13:33:15;32.20;94.30
2839;DHT22;1427;48.510;9.060;2023-09-08T13:35:43;32.20;93.00
2839;DHT22;1427;48.510;9.060;2023-09-08T13:38:11;32.00;93.40
2839;DHT22;1427;48.510;9.060;2023-09-08T13:40:39;31.70;93.10
2839;DHT22;1427;48.510;9.060;2023-09-08T13:43:08;31.30;93.40
2839;DHT22;1427;48.510;9.060;2023-09-08T13:45:38;31.30;94.10
2839;DHT22;1427;48.510;9.060;2023-09-08T13:48:07;31.40;94.20
2839;DHT22;1427;48.510;9.060;2023-09-08T13:50:38;31.50;93.80
2839;DHT22;1427;48.510;9.060;2023-09-08T13:53:07;31.50;93.90
2839;DHT22;1427;48.510;9.060;2023-09-08T13:55:35;31.70;94.70
2839;DHT22;1427;48.510;9.060;2023-09-08T13:58:09;31.90;94.80
2839;DHT22;1427;48.510;9.060;2023-09-08T14:00:37;32.10;94.80
2839;DHT22;1427;48.510;9.060;2023-09-08T14:03:12;32.10;94.60
2839;DHT22;1427;48.510;9.060;2023-09-08T14:05:46;32.20;93.50
2839;DHT22;1427;48.510;9.060;2023-09-08T14:08:17;32.10;93.20
2839;DHT22;1427;48.510;9.060;2023-09-08T14:10:55;32.00;93.10
2839;DHT22;1427;48.510;9.060;2023-09-08T14:13:26;31.70;93.60
2839;DHT22;1427;48.510;9.060;2023-09-08T14:15:54;31.50;93.80
2839;DHT22;1427;48.510;9.060;2023-09-08T14:18:24;31.60;94.90
2839;DHT22;1427;48.510;9.060;2023-09-08T14:20:52;31.80;94.70
2839;DHT22;1427;48.510;9.060;2023-09-08T14:23:20;31.90;93.80
2839;DHT22;1427;48.510;9.060;2023-09-08T14:25:48;31.90;93.90
2839;DHT22;1427;48.510;9.060;2023-09-08T14:28:16;31.90;94.20
2839;DHT22;1427;48.510;9.060;2023-09-08T14:30:44;31.90;93.80
2839;DHT22;1427;48.510;9.060;2023-09-08T14:33:12;31.70;93.40
2839;DHT22;1427;48.510;9.060;2023-09-08T14:35:43;31.70;94.40
2839;DHT22;1427;48.510;9.060;2023-09-08T14:38:13;31.80;92.80
2839;DHT22;1427;48.510;9.060;2023-09-08T14:40:43;31.50;92.30
2839;DHT22;1427;48.510;9.060;2023-09-08T14:43:11;31.10;92.70
2839;DHT22;1427;48.510;9.060;2023-09-08T14:45:39;31.10;93.10
2839;DHT22;1427;48.510;9.060;2023-09-08T14:48:07;31.20;93.90
2839;DHT22;1427;48.510;9.060;2023-09-08T14:50:36;31.30;93.50
2839;DHT22;1427;48.510;9.060;2023-09-08T14:53:05;31.30;93.30
2839;DHT22;1427;48.510;9.060;2023-09-08T14:55:34;31.40;93.40
2839;DHT22;1427;48.510;9.060;2023-09-08T14:58:03;31.30;93.80
2839;DHT22;1427;48.510;9.060;2023-09-08T15:00:31;31.20;92.40
2839;DHT22;1427;48.510;9.060;2023-09-08T15:02:59;31.20;92.40
2839;DHT22;1427;48.510;9.060;2023-09-08T15:05:28;31.10;92.90
2839;DHT22;1427;48.510;9.060;2023-09-08T15:07:56;31.10;93.50
2839;DHT22;1427;48.510;9.060;2023-09-08T15:10:26;31.10;92.60
2839;DHT22;1427;48.510;9.060;2023-09-08T15:12:54;31.10;92.90
2839;DHT22;1427;48.510;9.060;2023-09-08T15:15:22;31.10;93.00
2839;DHT22;1427;48.510;9.060;2023-09-08T15:17:52;31.00;93.80
2839;DHT22;1427;48.510;9.060;2023-09-08T15:20:20;30.90;93.20
2839;DHT22;1427;48.510;9.060;2023-09-08T15:22:49;30.80;93.80
2839;DHT22;1427;48.510;9.060;2023-09-08T15:25:17;30.80;94.10
2839;DHT22;1427;48.510;9.060;2023-09-08T15:27:46;30.70;94.20
2839;DHT22;1427;48.510;9.060;2023-09-08T15:30:15;30.70;94.20
2839;DHT22;1427;48.510;9.060;2023-09-08T15:32:43;30.60;94.10
2839;DHT22;1427;48.510;9.060;2023-09-08T15:35:12;30.60;94.40
2839;DHT22;1427;48.510;9.060;2023-09-08T15:37:40;30.50;94.10
2839;DHT22;1427;48.510;9.060;2023-09-08T15:40:09;30.50;94.20
2839;DHT22;1427;48.510;9.060;2023-09-08T15:42:41;30.40;94.30
2839;DHT22;1427;48.510;9.060;2023-09-08T15:45:11;30.20;94.90
2839;DHT22;1427;48.510;9.060;2023-09-08T15:47:39;30.10;94.70
2839;DHT22;1427;48.510;9.060;2023-09-08T15:50:08;30.10;94.70
2839;DHT22;1427;48.510;9.060;2023-09-08T15:52:37;30.00;94.80
2839;DHT22;1427;48.510;9.060;2023-09-08T15:55:05;30.00;94.90
2839;DHT22;1427;48.510;9.060;2023-09-08T15:57:34;30.00;95.00
2839;DHT22;1427;48.510;9.060;2023-09-08T16:00:03;29.90;95.40
2839;DHT22;1427;48.510;9.060;2023-09-08T16:02:32;29.90;95.20
2839;DHT22;1427;48.510;9.060;2023-09-08T16:05:01;29.80;95.30
2839;DHT22;1427;48.510;9.060;2023-09-08T16:07:29;29.60;95.00
2839;DHT22;1427;48.510;9.060;2023-09-08T16:09:57;29.60;95.00
2839;DHT22;1427;48.510;9.060;2023-09-08T16:12:25;29.60;95.40
2839;DHT22;1427;48.510;9.060;2023-09-08T16:14:53;29.50;95.70
2839;DHT22;1427;48.510;9.060;2023-09-08T16:17:22;29.40;95.90